Virtual United States Air Force

 METAR AND TAF INFORMATION
METAR FOR KLTS
ADDS - METARS form results

(2032 UTC 23 February 2020)
Data provider http://aviationweather.gov/metar/data/
 
METAR text: KLTS 232024Z AUTO 15011KT 10SM OVC006 11/11 A2985 RMK AO2 RAE1956RAB08E23 SLP107 $
Conditions at: KLTS (ALTUS AFB , OK, US) observed 2024 UTC 23 February 2020
Temperature: 11.0°C (52°F)
Dewpoint: 11.0°C (52°F) [RH = 100%]
Pressure (altimeter): 29.85 inches Hg (1010.9 mb)
[Sea-level pressure: 1010.7 mb]
Winds: from the SSE (150 degrees) at 13 MPH (11 knots; 5.7 m/s)
Visibility: 10 or more miles (16+ km)
Ceiling: 600 feet AGL
Clouds: overcast cloud deck at 600 feet AGL
Weather:
SOME DATA ABOVE MAY BE INACCURATE!!!
"$" is an indication the sensor requires maintenance

METAR text: KLTS 232023Z AUTO 15011KT 10SM -RA OVC006 11/11 A2985 RMK AO2 RAE1956RAB08E23 SLP107 $
Conditions at: KLTS (ALTUS AFB , OK, US) observed 2023 UTC 23 February 2020
Temperature: 11.0°C (52°F)
Dewpoint: 11.0°C (52°F) [RH = 100%]
Pressure (altimeter): 29.85 inches Hg (1010.9 mb)
[Sea-level pressure: 1010.7 mb]
Winds: from the SSE (150 degrees) at 13 MPH (11 knots; 5.7 m/s)
Visibility: 10 or more miles (16+ km)
Ceiling: 600 feet AGL
Clouds: overcast cloud deck at 600 feet AGL
Weather: -RA  (light rain)
SOME DATA ABOVE MAY BE INACCURATE!!!
"$" is an indication the sensor requires maintenance

METAR text: KLTS 232008Z AUTO 16009KT 10SM -RA BKN007 OVC080 11/11 A2985 RMK AO2 RAE1956RAB08 PRESFR SLP107 $
Conditions at: KLTS (ALTUS AFB , OK, US) observed 2008 UTC 23 February 2020
Temperature: 11.0°C (52°F)
Dewpoint: 11.0°C (52°F) [RH = 100%]
Pressure (altimeter): 29.85 inches Hg (1010.9 mb)
[Sea-level pressure: 1010.7 mb]
Winds: from the SSE (160 degrees) at 10 MPH (9 knots; 4.6 m/s)
Visibility: 10 or more miles (16+ km)
Ceiling: 700 feet AGL
Clouds: broken clouds at 700 feet AGL
overcast cloud deck at 8000 feet AGL
Weather: -RA  (light rain)
SOME DATA ABOVE MAY BE INACCURATE!!!
"$" is an indication the sensor requires maintenance

METAR text: KLTS 231957Z AUTO 18010KT 10SM BKN007 OVC090 11/11 A2987 RMK AO2 RAE56 SLP114 $
Conditions at: KLTS (ALTUS AFB , OK, US) observed 1957 UTC 23 February 2020
Temperature: 11.0°C (52°F)
Dewpoint: 11.0°C (52°F) [RH = 100%]
Pressure (altimeter): 29.87 inches Hg (1011.6 mb)
[Sea-level pressure: 1011.4 mb]
Winds: from the S (180 degrees) at 12 MPH (10 knots; 5.1 m/s)
Visibility: 10 or more miles (16+ km)
Ceiling: 700 feet AGL
Clouds: broken clouds at 700 feet AGL
overcast cloud deck at 9000 feet AGL
Weather:
SOME DATA ABOVE MAY BE INACCURATE!!!
"$" is an indication the sensor requires maintenance

METAR text: KLTS 231956Z AUTO 17010KT 10SM -RA BKN007 BKN049 OVC090 11/11 A2987 RMK AO2 RAB1859E35RAB47 SLP114 P0002 T01100110 $
Conditions at: KLTS (ALTUS AFB , OK, US) observed 1956 UTC 23 February 2020
Temperature: 11.0°C (52°F)
Dewpoint: 11.0°C (52°F) [RH = 100%]
Pressure (altimeter): 29.87 inches Hg (1011.6 mb)
[Sea-level pressure: 1011.4 mb]
Winds: from the S (170 degrees) at 12 MPH (10 knots; 5.1 m/s)
Visibility: 10 or more miles (16+ km)
Ceiling: 700 feet AGL
Clouds: broken clouds at 700 feet AGL
broken clouds at 4900 feet AGL
overcast cloud deck at 9000 feet AGL
Weather: -RA  (light rain)
SOME DATA ABOVE MAY BE INACCURATE!!!
"$" is an indication the sensor requires maintenance

METAR text: KLTS 231947Z AUTO 17008KT 10SM -RA BKN007 BKN070 OVC085 11/11 A2987 RMK AO2 RAB1859E35RAB47 CIG 006 RWY35L PRESFR SLP114 $
Conditions at: KLTS (ALTUS AFB , OK, US) observed 1947 UTC 23 February 2020
Temperature: 11.0°C (52°F)
Dewpoint: 11.0°C (52°F) [RH = 100%]
Pressure (altimeter): 29.87 inches Hg (1011.6 mb)
[Sea-level pressure: 1011.4 mb]
Winds: from the S (170 degrees) at 9 MPH (8 knots; 4.1 m/s)
Visibility: 10 or more miles (16+ km)
Ceiling: 700 feet AGL
Clouds: broken clouds at 700 feet AGL
broken clouds at 7000 feet AGL
overcast cloud deck at 8500 feet AGL
Weather: -RA  (light rain)
SOME DATA ABOVE MAY BE INACCURATE!!!
"$" is an indication the sensor requires maintenance

METAR text: KLTS 231935Z AUTO 19010KT 10SM BKN007 BKN070 OVC085 11/11 A2989 RMK AO2 RAB1859E35 BKN007 V OVC CIG 006 RWY35L CIG 006 RWY35R SLP121 $
Conditions at: KLTS (ALTUS AFB , OK, US) observed 1935 UTC 23 February 2020
Temperature: 11.0°C (52°F)
Dewpoint: 11.0°C (52°F) [RH = 100%]
Pressure (altimeter): 29.89 inches Hg (1012.3 mb)
[Sea-level pressure: 1012.1 mb]
Winds: from the S (190 degrees) at 12 MPH (10 knots; 5.1 m/s)
Visibility: 10 or more miles (16+ km)
Ceiling: 700 feet AGL
Clouds: broken clouds at 700 feet AGL
broken clouds at 7000 feet AGL
overcast cloud deck at 8500 feet AGL
Weather:
SOME DATA ABOVE MAY BE INACCURATE!!!
"$" is an indication the sensor requires maintenance

 AIRPORT MAP

 RUNWAY INFORMATION
Runway 17 Runway length 3501 ft Runway width 94 ft
Runway elevation 1379 ft Runway displaced threshold 0 ft Runway heading 180
Runway 35 Runway length 3501 ft Runway width 94 ft
Runway elevation 1364 ft Runway displaced threshold 0 ft Runway heading 360
Runway 174 Runway length 3501 ft Runway width 94 ft
Runway elevation 0 ft Runway displaced threshold 0 ft Runway heading 0
Runway 354 Runway length 3501 ft Runway width 94 ft
Runway elevation 0 ft Runway displaced threshold 0 ft Runway heading 0
Runway 17L Runway length 9000 ft Runway width 150 ft
Runway elevation 1382 ft Runway displaced threshold 0 ft Runway heading 180
Runway 35R Runway length 9000 ft Runway width 150 ft
Runway elevation 1354 ft Runway displaced threshold 0 ft Runway heading 360
Runway 17R Runway length 13440 ft Runway width 150 ft
Runway elevation 1379 ft Runway displaced threshold 0 ft Runway heading 180
Runway 35L Runway length 13440 ft Runway width 150 ft
Runway elevation 1346 ft Runway displaced threshold 0 ft Runway heading 360

 AIRPORT FREQUENCIES
Type APP Name APP Frequency 125.1 MHZ
Type ATIS Name ATIS Frequency 27.35 MHZ
Type CLD Name CLNC DEL Frequency 120.65 MHZ
Type DEP Name DEP Frequency 125.1 MHZ
Type GND Name GND Frequency 121.85 MHZ
Type PMSV Name PMSV METRO Frequency 23.98 MHZ
Type POST Name COMD POST Frequency 31.1 MHZ
Type PTD Name PTD Frequency 37.22 MHZ
Type TWR Name TWR Frequency 119.65 MHZ

 AIRPORT NEAR NAVIGATION AIDS


Neither the Department of the Air Force, nor any other component of the Department of Defense or Federal Government has approved, endorsed, or authorized this promotion, activity, or organization. Virtual United States Air Force organization is in no way affiliated with the Department of Defense, Department of the Air Force, or any other federal or government entity. Virtual United States Air Force is a group of flight simulation enthusiasts with the common interest of promoting enjoyment and cameraderie through the simulation of military operations and procedures utilizing several flight simulation platforms.

Copyright © vUSAF, LLC // 2018 All Rights Reserved